Time;durP1;ratioP1;P1;durP2;ratioP2;P2;SDS_P1;SDS_P2;PMS_P1;PMS_P2;Temp;Humidity;BMP_temperature;BMP_pressure;BME280_temperature;BME280_humidity;BME280_pressure;Samples;Min_cycle;Max_cycle;Signal;HPM_P1;HPM_P2
2024/01/24 00:01:35;;;;;;;2.22;1.30;;;12.40;93.70;;;;;;5009666;28;20138;-69
2024/01/24 00:04:01;;;;;;;1.95;1.00;;;12.30;93.60;;;;;;5005841;28;20124;-69
2024/01/24 00:06:27;;;;;;;1.42;1.00;;;12.40;93.80;;;;;;5012254;28;20044;-69
2024/01/24 00:08:53;;;;;;;3.03;1.30;;;12.40;93.80;;;;;;5013519;28;20424;-69
2024/01/24 00:11:18;;;;;;;1.45;0.98;;;12.40;93.80;;;;;;5031367;28;20033;-69
2024/01/24 00:13:44;;;;;;;1.88;1.20;;;12.40;93.80;;;;;;4992350;28;20053;-69
2024/01/24 00:16:09;;;;;;;1.73;0.93;;;12.40;93.70;;;;;;5002095;28;20029;-69
2024/01/24 00:18:35;;;;;;;1.25;0.98;;;12.40;93.60;;;;;;5011317;28;20381;-69
2024/01/24 00:21:02;;;;;;;2.83;0.90;;;12.40;93.70;;;;;;5012963;28;20061;-70
2024/01/24 00:23:27;;;;;;;2.30;1.15;;;12.40;93.60;;;;;;5020735;28;20050;-69
2024/01/24 00:25:53;;;;;;;1.20;0.88;;;12.40;93.80;;;;;;5005322;28;20478;-69
2024/01/24 00:28:19;;;;;;;1.80;0.82;;;12.40;93.90;;;;;;5047464;28;20122;-69
2024/01/24 00:30:44;;;;;;;1.85;1.02;;;12.40;93.70;;;;;;5011528;28;20040;-69
2024/01/24 00:33:10;;;;;;;1.33;0.63;;;12.40;93.60;;;;;;5013279;28;20059;-69
2024/01/24 00:35:36;;;;;;;0.90;0.90;;;12.40;93.60;;;;;;5014350;28;20044;-69
2024/01/24 00:38:01;;;;;;;1.92;0.80;;;12.40;93.30;;;;;;5014260;28;20033;-69
2024/01/24 00:40:27;;;;;;;1.98;1.05;;;12.40;93.40;;;;;;5032436;28;20065;-69
2024/01/24 00:42:52;;;;;;;1.75;0.70;;;12.40;93.40;;;;;;5014002;28;20103;-69
2024/01/24 00:45:18;;;;;;;1.25;0.80;;;12.40;93.30;;;;;;4997564;28;20611;-69
2024/01/24 00:47:44;;;;;;;0.80;0.77;;;12.40;93.40;;;;;;5010305;28;20045;-69
2024/01/24 00:50:09;;;;;;;1.00;0.90;;;12.40;93.10;;;;;;5013860;28;20088;-69
2024/01/24 00:52:35;;;;;;;0.65;0.63;;;12.50;93.00;;;;;;4999839;28;20068;-69
2024/01/24 00:55:01;;;;;;;0.60;0.60;;;12.50;92.90;;;;;;4994866;28;20030;-69
2024/01/24 00:57:27;;;;;;;0.47;0.47;;;12.50;92.80;;;;;;5039008;28;20115;-69
2024/01/24 00:59:52;;;;;;;0.82;0.70;;;12.50;92.80;;;;;;5046740;28;20057;-69
2024/01/24 01:02:18;;;;;;;0.95;0.85;;;12.50;92.70;;;;;;5034121;28;20045;-69
2024/01/24 01:04:43;;;;;;;1.95;0.88;;;12.40;92.70;;;;;;5014386;28;20117;-69
2024/01/24 01:07:10;;;;;;;0.95;0.70;;;12.50;92.80;;;;;;5011350;28;20546;-69
2024/01/24 01:09:38;;;;;;;0.60;0.52;;;12.50;93.00;;;;;;5028695;28;20029;-68
2024/01/24 01:12:04;;;;;;;0.93;0.57;;;12.50;92.70;;;;;;5005235;28;20179;-69
2024/01/24 01:14:29;;;;;;;1.30;0.60;;;12.50;92.70;;;;;;5008251;28;20053;-69
2024/01/24 01:16:55;;;;;;;1.08;0.82;;;12.50;92.80;;;;;;5008498;28;20038;-69
2024/01/24 01:19:21;;;;;;;0.73;0.50;;;12.50;92.70;;;;;;5013939;28;20034;-69
2024/01/24 01:21:46;;;;;;;1.00;0.55;;;12.50;92.70;;;;;;5010759;28;20079;-69
2024/01/24 01:24:12;;;;;;;1.70;0.88;;;12.50;92.70;;;;;;5025570;28;20449;-69
2024/01/24 01:26:38;;;;;;;1.02;0.68;;;12.50;92.70;;;;;;5013737;28;20484;-69
2024/01/24 01:29:04;;;;;;;0.93;0.68;;;12.50;92.60;;;;;;4993587;28;20428;-69
2024/01/24 01:31:30;;;;;;;0.60;0.50;;;12.50;92.60;;;;;;4997122;28;20040;-69
2024/01/24 01:33:55;;;;;;;1.58;0.80;;;12.50;92.70;;;;;;5012275;28;20492;-69
2024/01/24 01:36:21;;;;;;;0.68;0.57;;;12.50;92.80;;;;;;5010512;28;20033;-69
2024/01/24 01:38:47;;;;;;;0.88;0.73;;;12.50;93.00;;;;;;5010636;28;20060;-69
2024/01/24 01:41:12;;;;;;;0.80;0.57;;;12.60;93.00;;;;;;5030850;28;20053;-69
2024/01/24 01:43:38;;;;;;;2.25;0.60;;;12.60;92.90;;;;;;5007126;28;20037;-69
2024/01/24 01:46:06;;;;;;;0.98;0.52;;;12.60;93.00;;;;;;5029225;28;20579;-69
2024/01/24 01:48:32;;;;;;;0.50;0.50;;;12.60;93.00;;;;;;5008797;28;20485;-69
2024/01/24 01:50:57;;;;;;;1.15;0.55;;;12.60;93.00;;;;;;5010995;28;20095;-69
2024/01/24 01:53:23;;;;;;;0.52;0.40;;;12.60;93.10;;;;;;5009277;28;20038;-69
2024/01/24 01:55:49;;;;;;;0.40;0.40;;;12.60;93.20;;;;;;5003939;28;20038;-69
2024/01/24 01:58:15;;;;;;;1.33;0.40;;;12.60;93.00;;;;;;5009989;28;20042;-69
2024/01/24 02:00:41;;;;;;;0.50;0.50;;;12.60;93.00;;;;;;4994571;28;20459;-69
2024/01/24 02:03:07;;;;;;;0.55;0.32;;;12.60;93.00;;;;;;5012650;28;20033;-69
2024/01/24 02:05:32;;;;;;;2.70;0.50;;;12.60;92.90;;;;;;5013525;28;20041;-69
2024/01/24 02:07:58;;;;;;;1.13;0.57;;;12.60;93.00;;;;;;5028280;28;20047;-69
2024/01/24 02:10:23;;;;;;;1.75;0.57;;;12.60;92.80;;;;;;5031582;28;20037;-69
2024/01/24 02:12:49;;;;;;;0.40;0.40;;;12.60;92.60;;;;;;5006594;28;20184;-69
2024/01/24 02:15:15;;;;;;;1.45;0.75;;;12.60;92.60;;;;;;5041204;28;20048;-69
2024/01/24 02:17:41;;;;;;;0.50;0.50;;;12.60;92.70;;;;;;5029189;28;20052;-69
2024/01/24 02:20:09;;;;;;;1.55;0.40;;;12.60;92.80;;;;;;5012374;28;20485;-69
2024/01/24 02:22:36;;;;;;;0.82;0.50;;;12.60;92.60;;;;;;5010820;28;20042;-69
2024/01/24 02:25:02;;;;;;;0.50;0.40;;;12.60;92.50;;;;;;5013705;28;20046;-69
2024/01/24 02:27:28;;;;;;;1.23;0.52;;;12.70;92.50;;;;;;5012740;28;20065;-69
2024/01/24 02:29:57;;;;;;;0.75;0.50;;;12.70;92.60;;;;;;5029150;28;20084;-69
2024/01/24 02:32:23;;;;;;;0.80;0.40;;;12.70;92.70;;;;;;5014926;28;20045;-69
2024/01/24 02:34:49;;;;;;;0.60;0.38;;;12.70;92.70;;;;;;5037120;28;20268;-69
2024/01/24 02:37:15;;;;;;;1.05;0.40;;;12.70;92.50;;;;;;5012567;28;20052;-69
2024/01/24 02:39:41;;;;;;;0.38;0.38;;;12.70;92.50;;;;;;5029124;28;20034;-68
2024/01/24 02:42:07;;;;;;;0.55;0.47;;;12.70;92.40;;;;;;5029134;28;20069;-68
2024/01/24 02:44:32;;;;;;;1.65;0.68;;;12.70;92.40;;;;;;5012394;28;20386;-69
2024/01/24 02:46:58;;;;;;;1.30;0.57;;;12.70;92.30;;;;;;5028624;28;20033;-69
2024/01/24 02:49:23;;;;;;;1.17;0.65;;;12.70;92.30;;;;;;5026978;28;20409;-69
2024/01/24 02:51:49;;;;;;;0.65;0.43;;;12.70;92.30;;;;;;5017334;28;20045;-69
2024/01/24 02:54:15;;;;;;;0.80;0.43;;;12.70;92.30;;;;;;5009856;28;20092;-68
2024/01/24 02:56:40;;;;;;;0.50;0.50;;;12.70;92.30;;;;;;4992096;28;20069;-69
2024/01/24 02:59:06;;;;;;;2.10;0.68;;;12.70;92.40;;;;;;5006551;28;20127;-69
2024/01/24 03:01:31;;;;;;;1.67;0.70;;;12.70;92.50;;;;;;5024200;28;20557;-69
2024/01/24 03:03:57;;;;;;;0.73;0.50;;;12.70;92.40;;;;;;5028521;28;20053;-69
2024/01/24 03:06:23;;;;;;;0.75;0.50;;;12.70;92.30;;;;;;5010508;28;20088;-69
2024/01/24 03:08:56;;;;;;;1.70;0.70;;;12.80;92.50;;;;;;5006883;28;20042;-69
2024/01/24 03:11:22;;;;;;;1.42;0.52;;;12.80;92.50;;;;;;5036651;28;20061;-69
2024/01/24 03:13:48;;;;;;;1.17;0.60;;;12.80;92.60;;;;;;5025438;28;20026;-69
2024/01/24 03:16:14;;;;;;;1.67;0.63;;;12.80;92.50;;;;;;5027593;28;20493;-69
2024/01/24 03:18:39;;;;;;;1.92;0.55;;;12.80;92.60;;;;;;5004217;28;20033;-69
2024/01/24 03:21:06;;;;;;;4.15;1.10;;;12.80;92.40;;;;;;4986811;28;20069;-69
2024/01/24 03:23:32;;;;;;;2.80;1.10;;;12.80;92.50;;;;;;5009076;28;20182;-69
2024/01/24 03:25:58;;;;;;;2.90;0.73;;;12.80;92.60;;;;;;5010303;28;20075;-69
2024/01/24 03:28:23;;;;;;;2.55;0.93;;;12.80;92.50;;;;;;5010967;28;20099;-69
2024/01/24 03:30:49;;;;;;;3.10;0.90;;;12.80;92.50;;;;;;5014616;28;20053;-69
2024/01/24 03:33:14;;;;;;;4.75;1.50;;;12.80;92.60;;;;;;5028296;28;20037;-69
2024/01/24 03:35:40;;;;;;;4.25;1.55;;;12.80;92.60;;;;;;4993346;28;20052;-69
2024/01/24 03:38:06;;;;;;;2.25;0.85;;;12.80;92.80;;;;;;5013631;28;20065;-69
2024/01/24 03:40:32;;;;;;;3.22;1.08;;;12.80;92.80;;;;;;4995970;28;20229;-69
2024/01/24 03:42:58;;;;;;;2.17;0.95;;;12.80;92.80;;;;;;5011241;28;20045;-69
2024/01/24 03:45:23;;;;;;;2.90;1.23;;;12.90;92.60;;;;;;5027637;28;20056;-69
2024/01/24 03:47:49;;;;;;;4.30;1.08;;;12.90;92.60;;;;;;5013971;28;20119;-69
2024/01/24 03:50:15;;;;;;;3.85;1.48;;;12.90;92.70;;;;;;5011541;28;20144;-69
2024/01/24 03:52:40;;;;;;;5.38;1.75;;;12.90;92.60;;;;;;5011337;28;20060;-69
2024/01/24 03:55:06;;;;;;;5.38;2.05;;;12.90;92.60;;;;;;5011481;28;20500;-69
2024/01/24 03:57:32;;;;;;;4.40;1.30;;;12.90;92.80;;;;;;5011042;28;20041;-69
2024/01/24 03:59:57;;;;;;;4.53;1.30;;;12.90;92.80;;;;;;5013607;28;20037;-69
2024/01/24 04:02:23;;;;;;;5.82;1.52;;;12.90;92.70;;;;;;5013652;28;20519;-69
2024/01/24 04:04:49;;;;;;;5.60;1.83;;;12.90;92.70;;;;;;5027739;28;20041;-69
2024/01/24 04:07:14;;;;;;;6.68;1.67;;;12.90;92.80;;;;;;4994259;28;20041;-69
2024/01/24 04:09:40;;;;;;;7.13;2.17;;;12.90;92.80;;;;;;5012487;28;20471;-69
2024/01/24 04:12:06;;;;;;;4.40;1.60;;;12.90;92.90;;;;;;5013913;28;20045;-69
2024/01/24 04:14:31;;;;;;;6.45;2.25;;;12.90;92.80;;;;;;5029659;28;20084;-69
2024/01/24 04:16:57;;;;;;;6.15;2.00;;;12.90;92.80;;;;;;4981956;28;20038;-69
2024/01/24 04:19:23;;;;;;;8.18;2.42;;;12.90;92.70;;;;;;5013519;28;20127;-69
2024/01/24 04:21:49;;;;;;;6.28;2.30;;;12.90;92.80;;;;;;5010724;28;20061;-69
2024/01/24 04:24:15;;;;;;;8.30;2.65;;;12.90;92.80;;;;;;5030235;28;20046;-69
2024/01/24 04:26:42;;;;;;;7.53;2.13;;;12.90;92.90;;;;;;5016283;28;20045;-69
2024/01/24 04:29:07;;;;;;;6.93;2.35;;;12.90;93.00;;;;;;5027849;28;20095;-69
2024/01/24 04:31:33;;;;;;;7.60;3.13;;;12.90;92.90;;;;;;5013594;28;20397;-69
2024/01/24 04:33:59;;;;;;;7.78;2.10;;;12.90;92.80;;;;;;4994575;28;20037;-69
2024/01/24 04:36:24;;;;;;;12.55;2.88;;;13.00;92.80;;;;;;5012502;28;20586;-69
2024/01/24 04:38:50;;;;;;;9.93;2.40;;;12.90;92.80;;;;;;5062537;28;20038;-69
2024/01/24 04:41:15;;;;;;;8.68;2.45;;;12.90;92.80;;;;;;5027890;28;20044;-69
2024/01/24 04:43:41;;;;;;;9.40;2.80;;;13.00;92.80;;;;;;5010531;28;20497;-69
2024/01/24 04:46:14;;;;;;;10.20;3.13;;;12.90;92.80;;;;;;5013853;28;20041;-69
2024/01/24 04:48:43;;;;;;;9.15;3.50;;;12.90;92.70;;;;;;5012216;28;20054;-69
2024/01/24 04:51:08;;;;;;;7.55;2.97;;;12.90;92.70;;;;;;5029250;28;20098;-69
2024/01/24 04:53:35;;;;;;;9.98;2.92;;;12.90;92.70;;;;;;5025530;28;20136;-69
2024/01/24 04:56:00;;;;;;;12.88;3.85;;;12.90;92.70;;;;;;4996981;28;20052;-69
2024/01/24 04:58:26;;;;;;;9.68;2.78;;;12.90;92.70;;;;;;5027843;28;20053;-69
2024/01/24 05:00:52;;;;;;;8.48;3.05;;;12.90;92.70;;;;;;5028275;28;20388;-69
2024/01/24 05:03:18;;;;;;;10.52;2.95;;;12.90;92.70;;;;;;5011893;28;20033;-69
2024/01/24 05:05:43;;;;;;;10.57;2.90;;;12.90;92.70;;;;;;5027478;28;20073;-69
2024/01/24 05:08:09;;;;;;;12.27;3.65;;;13.00;92.70;;;;;;4995558;28;20120;-69
2024/01/24 05:10:34;;;;;;;7.30;2.95;;;12.90;92.70;;;;;;5013706;28;20043;-69
2024/01/24 05:13:00;;;;;;;9.15;3.50;;;12.90;92.60;;;;;;5013634;28;20038;-69
2024/01/24 05:15:26;;;;;;;14.00;4.35;;;13.00;92.60;;;;;;5028932;28;20764;-69
2024/01/24 05:17:51;;;;;;;14.18;4.20;;;13.00;92.60;;;;;;5030078;28;20069;-69
2024/01/24 05:20:17;;;;;;;9.93;3.55;;;13.00;92.60;;;;;;5027789;28;20045;-69
2024/01/24 05:22:43;;;;;;;11.15;3.30;;;13.00;92.60;;;;;;5013413;28;20617;-69
2024/01/24 05:25:09;;;;;;;8.20;3.08;;;12.90;92.50;;;;;;5011204;28;20408;-69
2024/01/24 05:27:34;;;;;;;11.85;3.13;;;12.90;92.50;;;;;;5009761;28;20042;-69
2024/01/24 05:30:00;;;;;;;12.30;3.53;;;13.00;92.50;;;;;;5026344;28;20045;-69
2024/01/24 05:32:25;;;;;;;13.07;3.60;;;13.00;92.40;;;;;;5029489;28;20079;-69
2024/01/24 05:34:51;;;;;;;12.55;4.20;;;12.90;92.40;;;;;;5010177;28;20038;-69
2024/01/24 05:37:17;;;;;;;12.70;3.75;;;13.00;92.40;;;;;;4992166;28;20065;-69
2024/01/24 05:39:42;;;;;;;15.32;4.78;;;13.00;92.40;;;;;;4993959;28;20042;-69
2024/01/24 05:42:08;;;;;;;13.48;4.13;;;13.00;92.40;;;;;;5012360;28;20042;-69
2024/01/24 05:44:34;;;;;;;12.63;4.38;;;13.00;92.30;;;;;;5012747;28;20034;-69
2024/01/24 05:47:00;;;;;;;12.90;4.00;;;13.00;92.30;;;;;;5009037;28;20452;-69
2024/01/24 05:49:25;;;;;;;13.80;4.53;;;13.00;92.30;;;;;;4993572;28;20038;-69
2024/01/24 05:51:51;;;;;;;13.63;4.28;;;13.00;92.20;;;;;;5007858;28;20046;-69
2024/01/24 05:54:17;;;;;;;14.23;4.40;;;13.00;92.20;;;;;;5005345;28;20048;-69
2024/01/24 05:56:42;;;;;;;15.88;4.22;;;13.00;92.20;;;;;;5010118;28;20037;-69
2024/01/24 05:59:09;;;;;;;15.90;4.60;;;13.00;92.20;;;;;;5028286;28;20041;-69
2024/01/24 06:01:34;;;;;;;13.15;4.72;;;13.00;92.10;;;;;;5012379;28;20052;-69
2024/01/24 06:04:00;;;;;;;15.20;3.92;;;13.00;92.10;;;;;;5011506;28;20041;-69
2024/01/24 06:06:26;;;;;;;14.32;4.22;;;13.00;92.10;;;;;;5030392;28;20072;-69
2024/01/24 06:08:51;;;;;;;17.15;4.03;;;13.00;92.10;;;;;;5012198;28;20040;-69
2024/01/24 06:11:17;;;;;;;13.68;4.55;;;13.00;92.00;;;;;;5011594;28;20038;-69
2024/01/24 06:13:43;;;;;;;17.83;5.35;;;13.00;92.00;;;;;;5012529;28;20179;-70
2024/01/24 06:16:08;;;;;;;15.30;4.80;;;13.00;91.90;;;;;;5011381;28;20052;-70
2024/01/24 06:18:34;;;;;;;17.00;4.88;;;13.00;91.90;;;;;;5035825;28;20041;-69
2024/01/24 06:21:00;;;;;;;16.83;5.10;;;13.00;91.90;;;;;;4993985;28;20057;-69
2024/01/24 06:23:26;;;;;;;20.27;5.60;;;13.00;91.80;;;;;;5025576;28;20040;-69
2024/01/24 06:25:52;;;;;;;17.75;5.25;;;13.00;91.80;;;;;;5009770;28;20041;-70
2024/01/24 06:28:17;;;;;;;20.63;5.65;;;13.00;91.80;;;;;;5023810;28;20398;-70
2024/01/24 06:30:43;;;;;;;14.48;5.32;;;13.00;91.70;;;;;;5024297;28;20118;-69
2024/01/24 06:33:09;;;;;;;20.02;4.95;;;13.00;91.70;;;;;;5011619;28;20045;-69
2024/01/24 06:35:34;;;;;;;17.77;5.50;;;13.00;91.70;;;;;;4978664;28;20048;-69
2024/01/24 06:38:01;;;;;;;15.50;4.90;;;13.00;91.60;;;;;;5005562;28;20072;-69
2024/01/24 06:40:26;;;;;;;17.83;5.75;;;13.00;91.60;;;;;;5010777;28;20073;-69
2024/01/24 06:42:52;;;;;;;17.05;5.30;;;13.00;91.50;;;;;;5009732;28;20132;-69
2024/01/24 06:45:18;;;;;;;16.98;5.07;;;13.00;91.50;;;;;;5027182;28;20045;-70
2024/01/24 06:47:44;;;;;;;13.65;5.35;;;13.00;91.40;;;;;;4994666;28;20045;-69
2024/01/24 06:50:13;;;;;;;16.08;5.40;;;13.00;91.40;;;;;;4995628;28;20037;-70
2024/01/24 06:52:41;;;;;;;13.30;5.15;;;13.00;91.40;;;;;;5009939;28;20124;-69
2024/01/24 06:55:08;;;;;;;20.60;5.22;;;13.00;91.30;;;;;;5039582;28;20038;-70
2024/01/24 06:57:34;;;;;;;21.83;5.68;;;13.00;91.30;;;;;;5010255;28;20037;-69
2024/01/24 07:00:00;;;;;;;16.63;4.97;;;13.00;91.30;;;;;;4994430;28;20037;-69
2024/01/24 07:02:26;;;;;;;22.60;6.03;;;13.00;91.20;;;;;;5007252;28;20395;-70
2024/01/24 07:04:51;;;;;;;18.20;5.53;;;13.00;91.20;;;;;;4981651;28;20041;-70
2024/01/24 07:07:17;;;;;;;19.65;4.95;;;13.00;91.20;;;;;;5011399;28;20077;-70
2024/01/24 07:09:43;;;;;;;16.63;5.45;;;13.00;91.10;;;;;;5009583;28;20416;-70
2024/01/24 07:12:08;;;;;;;15.10;5.90;;;13.00;91.50;;;;;;5012400;28;20041;-70
2024/01/24 07:14:34;;;;;;;20.10;5.93;;;13.00;91.10;;;;;;5014403;28;20392;-69
2024/01/24 07:17:00;;;;;;;17.98;5.57;;;13.00;91.00;;;;;;5014001;28;21884;-69
2024/01/24 07:19:26;;;;;;;19.25;5.60;;;13.00;91.00;;;;;;4987850;28;20041;-70
2024/01/24 07:21:51;;;;;;;22.85;6.82;;;12.90;90.90;;;;;;5016322;28;20038;-70
2024/01/24 07:24:17;;;;;;;19.35;6.28;;;12.90;91.00;;;;;;4992708;28;20408;-70
2024/01/24 07:26:43;;;;;;;21.15;5.60;;;13.00;91.00;;;;;;4989802;28;20077;-68
2024/01/24 07:29:10;;;;;;;21.98;6.72;;;13.00;91.00;;;;;;5023611;28;20421;-69
2024/01/24 07:31:37;;;;;;;30.38;7.00;;;13.00;91.00;;;;;;4993798;28;20056;-69
2024/01/24 07:34:03;;;;;;;16.98;6.03;;;13.00;91.00;;;;;;4978372;28;20042;-70
2024/01/24 07:36:29;;;;;;;22.92;6.38;;;13.00;91.00;;;;;;4979260;28;20450;-70
2024/01/24 07:38:54;;;;;;;26.65;6.00;;;13.10;91.00;;;;;;4989040;28;20042;-70
2024/01/24 07:41:20;;;;;;;27.17;6.47;;;13.10;91.00;;;;;;5014744;28;20145;-71
2024/01/24 07:43:46;;;;;;;19.08;6.72;;;13.10;91.00;;;;;;4994932;28;20058;-70
2024/01/24 07:46:12;;;;;;;26.83;6.82;;;13.10;91.00;;;;;;5008691;28;20040;-70
2024/01/24 07:48:38;;;;;;;22.67;6.40;;;13.10;91.00;;;;;;4990295;28;20046;-70
2024/01/24 07:51:04;;;;;;;23.25;6.35;;;13.10;90.90;;;;;;5009486;28;20042;-69
2024/01/24 07:53:30;;;;;;;20.20;6.45;;;13.10;90.90;;;;;;5012276;28;20137;-70
2024/01/24 07:55:56;;;;;;;20.35;6.28;;;13.10;90.80;;;;;;5007697;28;20058;-70
2024/01/24 07:58:22;;;;;;;20.08;6.82;;;13.10;90.80;;;;;;5003655;28;20400;-70
2024/01/24 08:00:48;;;;;;;22.23;6.75;;;13.20;90.80;;;;;;5016556;28;20042;-71
2024/01/24 08:03:13;;;;;;;22.58;6.25;;;13.20;90.80;;;;;;5001957;28;20192;-71
2024/01/24 08:05:39;;;;;;;22.17;6.63;;;13.20;91.10;;;;;;5006700;28;20054;-70
2024/01/24 08:08:05;;;;;;;18.27;6.28;;;13.20;90.70;;;;;;5026293;28;20128;-70
2024/01/24 08:10:30;;;;;;;22.50;6.10;;;13.20;90.70;;;;;;4994956;28;20042;-70
2024/01/24 08:12:56;;;;;;;25.33;6.43;;;13.30;90.70;;;;;;5011585;28;20050;-70
2024/01/24 08:15:22;;;;;;;24.35;6.60;;;13.20;90.60;;;;;;5009557;28;20034;-69
2024/01/24 08:17:47;;;;;;;22.83;6.85;;;13.30;90.60;;;;;;4978986;28;20042;-70
2024/01/24 08:20:13;;;;;;;19.85;6.10;;;13.30;90.50;;;;;;5008891;28;20042;-70
2024/01/24 08:22:39;;;;;;;20.50;6.32;;;13.30;90.50;;;;;;4994701;28;20045;-69
2024/01/24 08:25:05;;;;;;;23.63;6.93;;;13.30;90.50;;;;;;4996724;28;20038;-70
2024/01/24 08:27:30;;;;;;;22.92;6.50;;;13.30;90.40;;;;;;4994746;28;20412;-70
2024/01/24 08:29:57;;;;;;;18.02;5.75;;;13.30;90.40;;;;;;4994001;28;20046;-70
2024/01/24 08:32:22;;;;;;;22.13;6.22;;;13.30;90.40;;;;;;4995374;28;20037;-70
2024/01/24 08:34:48;;;;;;;19.50;5.93;;;13.30;90.30;;;;;;4990085;28;20053;-69
2024/01/24 08:37:14;;;;;;;21.20;6.63;;;13.40;90.40;;;;;;4994555;28;20117;-70
2024/01/24 08:39:40;;;;;;;19.33;5.53;;;13.40;90.30;;;;;;5010271;28;20049;-69
2024/01/24 08:42:06;;;;;;;18.83;5.70;;;13.30;90.30;;;;;;4993644;28;20050;-70
2024/01/24 08:44:31;;;;;;;18.73;6.55;;;13.40;90.30;;;;;;4994209;28;20037;-68
2024/01/24 08:46:57;;;;;;;23.80;5.90;;;13.40;90.30;;;;;;4979610;28;20050;-70
2024/01/24 08:49:23;;;;;;;21.77;7.20;;;13.40;90.30;;;;;;4994360;28;20461;-71
2024/01/24 08:51:48;;;;;;;22.00;7.15;;;13.40;90.20;;;;;;4991002;28;20078;-70
2024/01/24 08:54:14;;;;;;;21.65;7.20;;;13.40;90.20;;;;;;4975877;28;20096;-70
2024/01/24 08:56:40;;;;;;;18.67;6.15;;;13.40;90.20;;;;;;5016247;28;20093;-70
2024/01/24 08:59:06;;;;;;;16.25;5.78;;;13.40;90.10;;;;;;5003381;28;20038;-69
2024/01/24 09:01:31;;;;;;;21.10;6.55;;;13.40;90.40;;;;;;4982005;28;20038;-69
2024/01/24 09:03:57;;;;;;;21.88;6.68;;;13.40;90.10;;;;;;4998603;28;20046;-70
2024/01/24 09:06:25;;;;;;;20.90;6.55;;;13.40;90.10;;;;;;5010479;28;20056;-70
2024/01/24 09:08:54;;;;;;;19.30;6.22;;;13.40;90.00;;;;;;5011449;28;20300;-69
2024/01/24 09:11:20;;;;;;;17.80;6.32;;;13.50;90.10;;;;;;4998132;28;20084;-69
2024/01/24 09:13:46;;;;;;;21.85;6.75;;;13.40;90.00;;;;;;4979573;28;20482;-69
2024/01/24 09:16:12;;;;;;;24.30;7.03;;;13.40;90.00;;;;;;4968863;28;20068;-70
2024/01/24 09:18:39;;;;;;;19.02;6.45;;;13.50;90.00;;;;;;4996667;28;20042;-70
2024/01/24 09:21:05;;;;;;;23.92;7.50;;;13.50;90.00;;;;;;4982233;28;20549;-69
2024/01/24 09:23:30;;;;;;;19.95;6.25;;;13.50;90.00;;;;;;5000149;28;20092;-69
2024/01/24 09:25:56;;;;;;;24.55;6.65;;;13.50;90.00;;;;;;5028274;28;20034;-70
2024/01/24 09:28:22;;;;;;;21.58;6.43;;;13.50;89.90;;;;;;4986689;28;20030;-70
2024/01/24 09:30:47;;;;;;;24.40;6.18;;;13.50;89.80;;;;;;4985792;28;20045;-69
2024/01/24 09:33:13;;;;;;;25.48;6.50;;;13.50;89.80;;;;;;4996157;28;20083;-69
2024/01/24 09:35:40;;;;;;;23.52;6.78;;;13.50;89.90;;;;;;4995898;28;20034;-69
2024/01/24 09:38:06;;;;;;;25.45;6.95;;;13.50;89.80;;;;;;4995463;28;20060;-69
2024/01/24 09:40:31;;;;;;;16.75;6.45;;;13.50;89.80;;;;;;4987836;28;20037;-69
2024/01/24 09:43:01;;;;;;;22.48;6.00;;;13.50;89.80;;;;;;4991759;28;20487;-69
2024/01/24 09:45:27;;;;;;;22.88;6.25;;;13.50;89.70;;;;;;4987487;28;20070;-69
2024/01/24 09:47:54;;;;;;;20.98;6.35;;;13.50;89.60;;;;;;5018584;28;20409;-69
2024/01/24 09:50:20;;;;;;;17.83;5.68;;;13.40;89.60;;;;;;4985012;28;20057;-69
2024/01/24 09:52:45;;;;;;;22.52;7.18;;;13.40;89.60;;;;;;4985108;28;20037;-69
2024/01/24 09:55:13;;;;;;;25.02;6.57;;;13.40;89.60;;;;;;4997698;28;20034;-69
2024/01/24 09:57:38;;;;;;;23.13;7.63;;;13.40;89.50;;;;;;5001870;28;20105;-69
2024/01/24 10:00:05;;;;;;;19.13;6.55;;;13.40;89.60;;;;;;4985917;28;20140;-69
2024/01/24 10:02:31;;;;;;;20.67;6.72;;;13.40;89.60;;;;;;5013653;28;20034;-70
2024/01/24 10:04:58;;;;;;;21.95;6.07;;;13.40;89.60;;;;;;4978755;28;20508;-71
2024/01/24 10:07:24;;;;;;;18.95;5.63;;;13.40;89.70;;;;;;5001991;28;20501;-71
2024/01/24 10:10:09;;;;;;;22.08;6.07;;;13.40;89.70;;;;;;4998062;28;20062;-70
2024/01/24 10:12:34;;;;;;;21.33;5.85;;;13.40;89.70;;;;;;5000705;28;20513;-69
2024/01/24 10:15:01;;;;;;;17.15;5.88;;;13.40;89.70;;;;;;4998609;28;20046;-70
2024/01/24 10:17:27;;;;;;;20.00;6.15;;;13.40;89.60;;;;;;5005326;28;20033;-70
2024/01/24 10:19:53;;;;;;;20.67;5.80;;;13.40;89.70;;;;;;5013325;28;20507;-70
2024/01/24 10:22:19;;;;;;;24.02;6.65;;;13.40;89.60;;;;;;4996895;28;20041;-70
2024/01/24 10:24:45;;;;;;;19.27;6.50;;;13.50;89.60;;;;;;4997078;28;20567;-69
2024/01/24 10:27:11;;;;;;;21.40;6.90;;;13.40;89.60;;;;;;4997502;28;20038;-70
2024/01/24 10:29:42;;;;;;;26.17;7.25;;;13.50;89.60;;;;;;5014151;28;20046;-69
2024/01/24 10:32:09;;;;;;;20.67;6.47;;;13.50;89.60;;;;;;4999671;28;20042;-69
2024/01/24 10:34:36;;;;;;;22.08;6.65;;;13.50;89.60;;;;;;4984648;28;20042;-70
2024/01/24 10:37:01;;;;;;;17.98;6.57;;;13.50;89.50;;;;;;4984243;28;20121;-71
2024/01/24 10:39:27;;;;;;;22.40;6.57;;;13.50;89.50;;;;;;4981823;28;20109;-69
2024/01/24 10:41:54;;;;;;;18.08;5.60;;;13.50;89.50;;;;;;4981940;28;20444;-70
2024/01/24 10:44:23;;;;;;;19.27;5.53;;;13.50;89.60;;;;;;4994859;28;20052;-69
2024/01/24 10:46:49;;;;;;;25.40;6.78;;;13.60;89.60;;;;;;4986177;28;20046;-69
2024/01/24 10:49:15;;;;;;;16.73;5.60;;;13.60;89.60;;;;;;4999179;28;20404;-70
2024/01/24 10:51:43;;;;;;;21.02;5.45;;;13.60;89.60;;;;;;4980785;28;20042;-69
2024/01/24 10:54:08;;;;;;;;;;;13.60;89.60;;;;;;4986990;28;20120;-69
2024/01/24 10:56:34;;;;;;;14.50;5.28;;;13.60;89.50;;;;;;5015155;28;20001;-69
2024/01/24 10:59:02;;;;;;;19.55;5.65;;;13.60;89.60;;;;;;4984464;28;20041;-69
2024/01/24 11:01:27;;;;;;;19.83;5.93;;;13.60;89.60;;;;;;5000079;28;20045;-70
2024/01/24 11:03:53;;;;;;;17.08;5.57;;;13.60;89.50;;;;;;4987605;28;20050;-69
2024/01/24 11:06:20;;;;;;;17.65;5.53;;;13.60;89.50;;;;;;4983141;28;20094;-69
2024/01/24 11:09:05;;;;;;;18.92;5.95;;;13.60;89.40;;;;;;4959201;28;20205;-69
2024/01/24 11:11:32;;;;;;;15.90;5.18;;;13.60;89.50;;;;;;5010068;28;20513;-69
2024/01/24 11:13:59;;;;;;;19.40;6.38;;;13.60;89.50;;;;;;4974981;28;20034;-69
2024/01/24 11:16:41;;;;;;;18.77;6.25;;;13.60;89.50;;;;;;4989645;28;20070;-68
2024/01/24 11:19:23;;;;;;;21.55;6.05;;;13.60;89.50;;;;;;5016184;28;20108;-69
2024/01/24 11:21:49;;;;;;;17.15;6.07;;;13.60;89.50;;;;;;5016287;28;20054;-68
2024/01/24 11:24:40;;;;;;;19.30;5.97;;;13.60;89.50;;;;;;4990084;28;20077;-68
2024/01/24 11:27:25;;;;;;;19.85;6.05;;;13.50;89.40;;;;;;5016354;28;20056;-68
2024/01/24 11:29:51;;;;;;;19.52;6.13;;;13.60;89.50;;;;;;4999201;28;20041;-68
2024/01/24 11:32:54;;;;;;;17.23;5.45;;;13.50;89.40;;;;;;4999446;28;20042;-68
2024/01/24 11:35:24;;;;;;;19.60;5.88;;;13.60;89.40;;;;;;5000874;28;20501;-68
2024/01/24 11:37:50;;;;;;;18.55;5.70;;;13.50;89.50;;;;;;5018082;28;20053;-69
2024/01/24 11:40:16;;;;;;;23.08;6.07;;;13.50;89.50;;;;;;5001818;28;20429;-68
2024/01/24 11:42:42;;;;;;;17.45;6.00;;;13.50;89.50;;;;;;5006243;28;20069;-69
2024/01/24 11:45:19;;;;;;;17.20;5.07;;;13.50;89.50;;;;;;4972280;28;20080;-68
2024/01/24 11:47:46;;;;;;;21.25;6.07;;;13.50;89.40;;;;;;5015782;28;20069;-68
2024/01/24 11:50:11;;;;;;;18.73;6.10;;;13.50;89.30;;;;;;4988418;28;20038;-68
2024/01/24 11:52:38;;;;;;;17.35;5.13;;;13.50;89.40;;;;;;4981464;28;20052;-68
2024/01/24 11:55:04;;;;;;;19.60;5.80;;;13.50;89.40;;;;;;5001982;28;20046;-68
2024/01/24 11:57:30;;;;;;;16.00;5.45;;;13.50;89.40;;;;;;4986903;28;20034;-68
2024/01/24 11:59:56;;;;;;;16.48;5.40;;;13.50;89.40;;;;;;4992854;28;20504;-68
2024/01/24 12:02:23;;;;;;;17.02;5.63;;;13.50;89.30;;;;;;5005436;28;20487;-68
2024/01/24 12:04:52;;;;;;;16.63;4.90;;;13.50;89.40;;;;;;5003803;28;20131;-68
2024/01/24 12:07:18;;;;;;;17.17;5.43;;;13.50;89.30;;;;;;5023076;28;20034;-68
2024/01/24 12:09:44;;;;;;;16.10;5.05;;;13.50;89.30;;;;;;5000783;28;20038;-68
2024/01/24 12:12:10;;;;;;;16.55;6.13;;;13.50;89.30;;;;;;5018351;28;20045;-68
2024/01/24 12:14:36;;;;;;;18.20;5.20;;;13.50;90.00;;;;;;5024326;28;20107;-68
2024/01/24 12:17:05;;;;;;;14.80;5.30;;;13.50;89.30;;;;;;4990812;28;20393;-68
2024/01/24 12:19:31;;;;;;;14.57;5.13;;;13.40;89.20;;;;;;5017953;28;20038;-68
2024/01/24 12:21:58;;;;;;;14.73;4.82;;;13.50;89.30;;;;;;5019779;28;20041;-68
2024/01/24 12:24:24;;;;;;;15.27;4.20;;;13.50;89.20;;;;;;5002040;28;20053;-68
2024/01/24 12:26:49;;;;;;;11.65;4.22;;;13.50;89.30;;;;;;5003276;28;20061;-68
2024/01/24 12:29:15;;;;;;;18.02;4.32;;;13.50;89.30;;;;;;5003738;28;20038;-68
2024/01/24 12:31:45;;;;;;;16.48;5.43;;;13.40;89.20;;;;;;5010358;28;20497;-68
2024/01/24 12:34:11;;;;;;;16.77;4.75;;;13.40;89.20;;;;;;5008851;28;20037;-68
2024/01/24 12:36:37;;;;;;;16.48;4.80;;;13.40;89.10;;;;;;5008072;28;20095;-68